Main page
METAR-TAF:

METAR-TAF

Airports :

Termez Airport

Termez, Uzbekistan

latitude: 37-14N, longitude: 067-16E, elevation: 302 m

Current weather observation

The report was made 27 minutes ago, at 05:30 UTC
Wind 6 kt from the Southwest, varying between South and West
Temperature 30°C
Humidity 22%
Pressure 1011 hPa
Visibility 10 km or more
no clouds below 1500 m and no cumulonimbus

METAR: UTST 250530Z 23006KT 190V260 CAVOK 30/06 Q1011 R88/CLRD70 NOSIG

Time: 10:57 (05:57 UTC)

Forecast

The report was made 57 minutes ago, at 05:00 UTC
Forecast valid from 25 at 06 UTC to 26 at 06 UTC
Wind 6 kt from variable directions
Visibility: 6000 m
Temporary
from 25 at 06 UTC to 25 at 15 UTC
Wind 8 kt from the West/Southwest with gusts up to 18 kt

TAF: UTST 250500Z 2506/2606 VRB06KT 6000 NSC TX37/2511Z TEMPO 2506/2515 24008G18KT

Weather observations and forecasts of more than 4000 airports (METAR and TAF reports).

The available stations are represented by yellow and red dots on the map.

Hover mouse over dot to see the name of the station.

Then click to see weather observations and forecasts.

To change the map : click on the green buttons with a black cross to zoom in, on the green button with a dash to zoom out, or on the green arrows for adjacent maps.


METAR-TAF: